• Join FlightAware (Why Join?)
  • Login
  • US Flag 
12:12AM EDT


 

Airport Tracker/Info


-or-


 

Live Flight TrackerFlight Track Log ✈ XOJ750 ✈ 03-Jul-2013 ✈ KBZN - KBVY

Flight Track Log - Related Links

Times and Time Zones

All times are in EDT time to prevent confusion due to time zone crossing. See the XOJ750 flight status page for this flight to view local times or setup timezone preferences in your user account.

Time Position Orientation Groundspeed Altitude Reporting Facility
EDT Latitude Longitude Course Direction KTS MPH feet Rate Location/Type
12:43PM 45.7583 -111.1242 83° East 198 228 5,400  Level Salt Lake Center
12:44PM 45.7150 -111.0611 135° Southeast 222 255 7,800 2,280 Climbing Salt Lake Center
12:45PM 45.6658 -110.9817 132° Southeast 243 280 10,200 2,400 Climbing Salt Lake Center
12:46PM 45.8831 -109.9904 82° East  Level Estimated
12:46PM 45.6533 -110.8733 99° East 275 316 12,800  Level Salt Lake Center
12:47PM 45.8996 -109.7963 83° East  Level Estimated
12:47PM 45.6528 -110.7617 90° East 285 328 15,100  Level Salt Lake Center
12:48PM 45.9157 -109.6022 83° East  Level Estimated
12:48PM 45.6678 -110.6169 82° East 309 356 17,200  Level Salt Lake Center
12:49PM 45.6639 -110.4786 92° East 339 390 18,200 960 Climbing Salt Lake Center
12:51PM 45.6592 -110.1578 91° East 409 471 20,200 960 Climbing Salt Lake Center
12:52PM 45.6567 -109.9883 91° East 423 487 21,200 960 Climbing Salt Lake Center
12:53PM 45.6531 -109.8150 92° East 436 502 22,200 1,020 Climbing Salt Lake Center
12:54PM 45.6494 -109.6017 91° East 445 512 23,400 1,020 Climbing Salt Lake Center
12:55PM 45.6450 -109.4239 92° East 447 514 24,400 960 Climbing Salt Lake Center
12:56PM 45.6403 -109.2411 92° East 459 528 25,400 960 Climbing Salt Lake Center
12:57PM 45.6350 -109.0592 92° East 460 529 26,400 960 Climbing Salt Lake Center
12:58PM 45.6283 -108.8722 93° East 469 540 27,400 960 Climbing Salt Lake Center
12:59PM 45.6233 -108.6833 92° East 475 547 28,500 960 Climbing Salt Lake Center
01:00PM 45.6169 -108.4933 93° East 479 551 29,400 900 Climbing Salt Lake Center
01:01PM 45.6103 -108.2625 92° East 485 558 30,400 840 Climbing Salt Lake Center
01:02PM 45.6036 -108.0675 93° East 488 562 31,200 720 Climbing Salt Lake Center
01:03PM 45.5964 -107.8678 93° East 499 574 31,900 720 Climbing Salt Lake Center
01:04PM 45.5892 -107.6661 93° East 506 582 32,700 660 Climbing Salt Lake Center
01:06PM 45.5803 -107.4614 93° East 515 593 33,300 540 Climbing Salt Lake Center
01:07PM 45.5719 -107.2550 93° East 521 600 33,900 540 Climbing Salt Lake Center
01:08PM 45.5628 -107.0461 94° East 525 604 34,500 600 Climbing Salt Lake Center
01:09PM 45.5511 -106.7961 94° East 526 605 35,200 600 Climbing Salt Lake Center
01:10PM 45.5436 -106.5894 93° East 523 602 35,800 600 Climbing Salt Lake Center
01:11PM 45.5331 -106.3817 94° East 525 604 36,500 660 Climbing Salt Lake Center
01:12PM 45.5214 -106.1747 95° East 525 604 37,200 660 Climbing Salt Lake Center
01:13PM 45.5106 -105.9694 94° East 522 601 37,900 600 Climbing Salt Lake Center
01:14PM 45.4994 -105.7658 94° East 518 596 38,500 660 Climbing Salt Lake Center
01:15PM 45.4858 -105.5244 95° East 511 588 39,300 720 Climbing Salt Lake Center
01:16PM 45.4733 -105.3269 95° East 505 581 40,000 660 Climbing Salt Lake Center
01:17PM 45.4617 -105.1308 95° East 502 578 40,700 480 Climbing Salt Lake Center
01:18PM 45.4492 -104.9333 95° East 500 575 41,000 120 Climbing Salt Lake Center
01:19PM 45.4369 -104.7344 95° East 505 581 41,000  Level Salt Lake Center
01:20PM 45.4222 -104.5136 95° East 513 590 41,000  Level Salt Lake Center
01:21PM 45.4081 -104.3122 96° East 515 593 41,000  Level Salt Lake Center
01:22PM 45.3944 -104.1125 95° East 511 588 41,000  Level Salt Lake Center
01:23PM 45.3797 -103.9106 96° East 514 592 41,000  Level Salt Lake Center
01:24PM 45.3617 -103.6708 96° East 512 589 41,000  Level Salt Lake Center
01:25PM 45.3469 -103.4736 96° East 507 583 41,000  Level Salt Lake Center
01:26PM 45.3314 -103.2744 96° East 508 585 41,000  Level Salt Lake Center
01:27PM 45.3167 -103.0878 96° East 509 586 41,000  Level Minneapolis Center
01:28PM 45.3006 -102.8889 96° East 508 585 41,000  Level Minneapolis Center
01:29PM 45.2842 -102.6919 97° East 505 581 41,000  Level Minneapolis Center
01:30PM 45.2672 -102.4947 97° East 505 581 41,000  Level Minneapolis Center
01:31PM 45.2461 -102.2572 97° East 506 582 41,000  Level Minneapolis Center
01:32PM 45.2292 -102.0608 97° East 504 580 41,000  Level Minneapolis Center
01:33PM 45.2114 -101.8650 97° East 502 578 41,000  Level Minneapolis Center
01:34PM 45.1944 -101.6697 97° East 500 575 41,000  Level Minneapolis Center
01:35PM 45.1753 -101.4756 98° East 499 574 41,000  Level Minneapolis Center
01:36PM 45.1569 -101.2792 97° East 502 578 41,000  Level Minneapolis Center
01:37PM 45.1336 -101.0442 98° East 503 579 41,000  Level Minneapolis Center
01:39PM 45.1139 -100.8489 98° East 503 579 41,000  Level Minneapolis Center
01:40PM 45.0944 -100.6536 98° East 502 578 41,000  Level Minneapolis Center
01:41PM 45.0753 -100.4617 98° East 499 574 41,000  Level Minneapolis Center
01:42PM 45.0550 -100.2714 99° East 495 570 41,000  Level Minneapolis Center
01:43PM 45.0328 -100.0636 99° East 499 574 41,000  Level Minneapolis Center
01:44PM 45.0100 -99.8589 99° East 500 575 41,000  Level Minneapolis Center
01:45PM 44.9914 -99.6664 98° East 499 574 41,000  Level Minneapolis Center
01:46PM 44.9708 -99.4736 99° East 497 572 41,000  Level Minneapolis Center
01:47PM 44.9433 -99.2414 99° East 500 575 41,000  Level Minneapolis Center
01:48PM 44.9219 -99.0461 99° East 503 579 41,000  Level Minneapolis Center
01:49PM 44.8992 -98.8525 99° East 502 578 41,000  Level Minneapolis Center
01:50PM 44.8758 -98.6592 100° East 502 578 41,000  Level Minneapolis Center
01:51PM 44.8531 -98.4658 99° East 501 577 41,000  Level Minneapolis Center
01:52PM 44.8258 -98.2442 100° East 503 579 41,000  Level Minneapolis Center
01:53PM 44.8011 -98.0514 100° East 502 578 41,000  Level Minneapolis Center
01:54PM 44.7769 -97.8600 100° East 498 573 41,000  Level Minneapolis Center
01:55PM 44.7514 -97.6681 101° East 499 574 41,000  Level Minneapolis Center
01:56PM 44.7264 -97.4758 100° East 500 575 41,000  Level Minneapolis Center
01:57PM 44.6961 -97.2444 100° East 502 578 41,000  Level Minneapolis Center
01:58PM 44.6686 -97.0519 101° East 503 579 41,000  Level Minneapolis Center
01:59PM 44.6428 -96.8583 101° East 503 579 41,000  Level Minneapolis Center
02:00PM 44.6161 -96.6653 101° East 503 579 41,000  Level Minneapolis Center
02:01PM 44.5903 -96.4722 101° East 501 577 41,000  Level Minneapolis Center
02:02PM 44.5633 -96.2794 101° East 501 577 41,000  Level Minneapolis Center
02:03PM 44.5364 -96.0872 101° East 498 573 41,000  Level Minneapolis Center
02:04PM 44.5078 -95.8950 102° East 499 574 41,000  Level Minneapolis Center
02:05PM 44.4750 -95.6653 101° East 499 574 41,000  Level Minneapolis Center
02:06PM 44.4458 -95.4750 102° East 497 572 41,000  Level Minneapolis Center
02:07PM 44.4164 -95.2831 102° East 502 578 41,000  Level Minneapolis Center
02:09PM 44.3864 -95.0925 102° East 502 578 41,000  Level Minneapolis Center
02:10PM 44.3592 -94.9042 101° East 496 571 41,000  Level Minneapolis Center
02:11PM 44.3278 -94.7158 103° East 497 572 41,000  Level Minneapolis Center
02:12PM 44.2942 -94.5019 102° East 497 572 41,000  Level Minneapolis Center
02:13PM 44.2636 -94.3150 103° East 496 571 41,000  Level Minneapolis Center
02:14PM 44.2328 -94.1258 103° East 501 577 41,000  Level Minneapolis Center
02:15PM 44.2036 -93.9397 102° East 498 573 41,000  Level Minneapolis Center
02:16PM 44.1675 -93.7156 103° East 498 573 41,000  Level Minneapolis Center
02:17PM 44.1353 -93.5303 104° East 498 573 41,000  Level Minneapolis Center
02:18PM 44.1033 -93.3425 103° East 502 578 41,000  Level Minneapolis Center
02:19PM 44.0719 -93.1558 103° East 502 578 41,000  Level Minneapolis Center
02:20PM 44.0325 -92.9300 104° East 504 580 41,000  Level Minneapolis Center
02:21PM 43.9989 -92.7431 104° East 504 580 41,000  Level Minneapolis Center
02:22PM 43.9661 -92.5558 104° East 504 580 41,000  Level Minneapolis Center
02:23PM 43.9333 -92.3689 104° East 504 580 41,000  Level Minneapolis Center
02:24PM 43.8989 -92.1811 104° East 505 581 41,000  Level Minneapolis Center
02:25PM 43.8581 -91.9572 104° East 504 580 41,000  Level Minneapolis Center
02:26PM 43.8247 -91.7700 104° East 504 580 41,000  Level Minneapolis Center
02:27PM 43.7933 -91.6011 104° East 503 579 41,000  Level Minneapolis Center
02:28PM 43.7581 -91.4150 105° East 503 579 41,000  Level Minneapolis Center
02:29PM 43.7081 -91.1553 105° East 503 579 41,000  Level Minneapolis Center
02:30PM 43.6728 -90.9678 105° East 505 581 41,000  Level Minneapolis Center
02:32PM 43.6367 -90.7814 105° East 507 583 41,000  Level Minneapolis Center
02:33PM 43.5997 -90.5958 105° East 505 581 41,000  Level Minneapolis Center
02:34PM 43.5636 -90.4089 105° East 506 582 41,000  Level Minneapolis Center
02:35PM 43.5125 -90.1578 106° East 506 582 41,000  Level Minneapolis Center
02:36PM 43.4747 -89.9728 106° East 503 579 41,000  Level Minneapolis Center
02:37PM 43.4589 -89.7803 96° East 506 582 41,000  Level Minneapolis Center
02:38PM 43.4636 -89.5511 88° East 510 587 41,000  Level Minneapolis Center
02:39PM 43.4633 -89.3550 90° East 511 588 41,000  Level Minneapolis Center
02:40PM 43.4628 -89.1581 90° East 512 589 41,000  Level Minneapolis Center
02:41PM 43.4617 -88.9628 90° East 510 587 41,000  Level Minneapolis Center
02:42PM 43.4606 -88.7636 90° East 515 593 41,000  Level Minneapolis Center
02:43PM 43.4592 -88.5647 90° East 517 595 41,000  Level Minneapolis Center
02:44PM 43.4542 -88.3239 92° East 522 601 41,000  Level Minneapolis Center
02:45PM 43.4547 -88.1811 90° East 524 603 41,000  Level Minneapolis Center
02:46PM 43.4503 -87.9178 91° East 518 596 41,000  Level Minneapolis Center
02:47PM 43.4467 -87.7206 91° East 517 595 41,000  Level Minneapolis Center
02:48PM 43.4439 -87.5203 91° East 520 598 41,000  Level Minneapolis Center
02:49PM 43.4397 -87.3186 92° East 526 605 41,000  Level Minneapolis Center
02:51PM 43.4342 -87.0458 92° East 532 612 41,000  Level Chicago Center
02:52PM 43.4286 -86.8428 92° East 533 613 41,000  Level Chicago Center
02:53PM 43.4244 -86.6392 92° East 533 613 41,000  Level Chicago Center
02:54PM 43.4192 -86.4322 92° East 539 620 41,000  Level Chicago Center
02:55PM 43.4144 -86.2281 92° East 533 613 41,000  Level Chicago Center
02:56PM 43.4072 -85.9831 92° East 530 610 41,000  Level Chicago Center
02:57PM 43.4000 -85.7767 93° East 534 615 41,000  Level Chicago Center
02:58PM 43.3933 -85.5733 93° East 530 610 41,000  Level Chicago Center
02:59PM 43.3853 -85.3697 93° East 530 610 41,000  Level Chicago Center
03:00PM 43.3778 -85.1642 93° East 536 617 41,000  Level Chicago Center
03:01PM 43.3697 -84.9603 93° East 535 616 41,000  Level Chicago Center
03:02PM 43.3608 -84.7556 93° East 537 618 41,000  Level Chicago Center
03:03PM 43.3506 -84.5092 93° East 539 620 41,000  Level Chicago Center
03:04PM 43.3414 -84.3050 93° East 536 617 41,000  Level Chicago Center
03:05PM 43.3339 -84.1767 95° East 537 618 41,000  Level Cleveland Center
03:06PM 43.3211 -83.9733 95° East 537 618 41,000  Level Cleveland Center
03:07PM 43.3125 -83.7675 93° East 543 625 41,000  Level Cleveland Center
03:08PM 43.3036 -83.5558 93° East 543 625 41,000  Level Cleveland Center
03:09PM 43.2919 -83.3469 94° East 543 625 41,000  Level Cleveland Center
03:10PM 43.2803 -83.1325 94° East 549 632 41,000  Level Cleveland Center
03:11PM 43.2678 -82.9297 95° East 549 632 41,000  Level Cleveland Center
03:12PM 43.2533 -82.7181 95° East 549 632 41,000  Level Cleveland Center
03:13PM 43.2297 -82.5150 99° East 549 632 41,000  Level Cleveland Center
03:14PM 43.1833 -82.2167 102° East 550 633 41,000  Level Toronto Center
03:15PM 43.1500 -82.0167 103° East 550 633 41,000  Level Toronto Center
03:16PM 43.1333 -81.8000 96° East 550 633 41,000  Level Toronto Center
03:17PM 43.1000 -81.6000 103° East 550 633 41,000  Level Toronto Center
03:18PM 43.0667 -81.3833 102° East 560 644 41,000  Level Toronto Center
03:19PM 43.0333 -81.1833 103° East 550 633 41,000  Level Toronto Center
03:20PM 43.0167 -80.9833 96° East 560 644 41,000  Level Toronto Center
03:21PM 43.0167 -80.7667 90° East 560 644 41,000  Level Toronto Center
03:22PM 43.0167 -80.5500 90° East 560 644 41,000  Level Toronto Center
03:23PM 43.0000 -80.3333 96° East 550 633 41,000  Level Toronto Center
03:24PM 43.0000 -80.1333 90° East 550 633 41,000  Level Toronto Center
03:25PM 42.9833 -79.9333 96° East 550 633 41,000  Level Toronto Center
03:26PM 42.9667 -79.7167 96° East 550 633 41,000  Level Toronto Center
03:27PM 42.9667 -79.5167 90° East 550 633 41,000  Level Toronto Center
03:28PM 42.9500 -79.2833 95° East 550 633 41,000  Level Toronto Center
03:29PM 42.9500 -79.0833 90° East 550 633 41,000  Level Toronto Center
03:30PM 42.9333 -78.8833 96° East 550 633 41,000  Level Toronto Center
03:31PM 42.9333 -78.6833 90° East 550 633 41,000  Level Toronto Center
03:32PM 42.9286 -78.5928 94° East 553 636 41,000  Level Cleveland Center
03:33PM 42.9247 -78.3800 91° East 553 636 41,000  Level Cleveland Center
03:34PM 42.9206 -78.1706 91° East 553 636 41,000  Level Cleveland Center
03:35PM 42.9156 -77.9411 92° East 553 636 41,000  Level Cleveland Center
03:36PM 42.9106 -77.7258 92° East 553 636 41,000  Level Cleveland Center
03:38PM 42.8833 -77.2000 94° East 560 644 41,000  Level Toronto Center
03:39PM 42.8931 -77.0917 83° East 557 641 41,000  Level Boston Center
03:40PM 42.8867 -76.8842 92° East 562 647 41,000  Level Boston Center
03:41PM 42.8803 -76.6711 92° East 562 647 41,000  Level Boston Center
03:42PM 42.8725 -76.4864 93° East 555 639 41,000  Level Boston Center
03:43PM 42.8644 -76.2336 92° East 555 639 41,000  Level Boston Center
03:44PM 42.8556 -75.9978 93° East 563 648 41,000 -480 Level Boston Center
03:45PM 42.8450 -75.7931 94° East 558 642 40,100 -1,200 Descending Boston Center
03:46PM 42.8364 -75.5861 93° East 558 642 38,700 -1,440 Descending Boston Center
03:47PM 42.8272 -75.3761 93° East 558 642 37,300 -1,440 Descending Boston Center
03:48PM 42.8181 -75.1661 93° East 558 642 35,900 -1,320 Descending Boston Center
03:49PM 42.8092 -75.0014 94° East 558 642 34,700 -1,380 Descending Boston Center
03:50PM 42.7958 -74.7519 94° East 558 642 33,200 -1,260 Descending Boston Center
03:51PM 42.7856 -74.5336 94° East 563 648 32,200 -1,320 Descending Boston Center
03:52PM 42.7747 -74.3211 94° East 568 654 30,600 -1,080 Descending Boston Center
03:54PM 42.7517 -73.8992 94° East 558 642 29,000 -720 Descending Boston Center
03:55PM 42.7392 -73.7178 95° East 551 634 28,500 -900 Descending Boston Center
03:56PM 42.7183 -73.5167 98° East 546 628 27,300 -1,440 Descending Boston Center
03:57PM 42.6950 -73.3158 99° East 539 620 25,700 -1,500 Descending Boston Center
03:58PM 42.6717 -73.0953 98° East 539 620 24,300 -1,140 Descending Boston Center
04:00PM 42.6267 -72.7969 100° East  Level FlightAware Approximate
04:00PM 42.6253 -72.7139 100° East 514 592 22,300  Level Boston Center
04:01PM 42.6047 -72.5331 99° East 484 557 19,000 -3,120 Descending Boston Center
04:02PM 42.5839 -72.3639 99° East 472 543 16,100 -2,640 Descending Boston Center
04:03PM 42.5647 -72.2089 99° East 436 502 13,300 -2,520 Descending Boston Center
04:04PM 42.5456 -72.0456 99° East 388 447 10,600 -1,980 Descending Boston Center
04:05PM 42.5347 -71.9331 97° East 344 396 9,000 -1,740 Descending Boston Center
04:06PM 42.5236 -71.7808 96° East 317 365 6,800 -1,860 Descending Boston Center
04:07PM 42.5292 -71.6681 86° East 301 346 5,300 -1,260 Descending Boston Center
04:08PM 42.5325 -71.5753 87° East 285 328 4,300 -1,080 Descending Boston Center
04:09PM 42.5358 -71.4594 88° East 278 320 3,200 -660 Descending Boston Center
04:10PM 42.5411 -71.3608 86° East 278 320 3,000 -180 Descending Boston Center
04:11PM 42.5667 -71.2500 73° East 269 310 2,900 -540 Descending KA90
04:12PM 42.5833 -71.1500 77° East 241 277 2,000 -480 Descending KA90
04:13PM 42.6000 -71.0667 75° East 231 266 2,000  Level KA90
04:14PM 42.6167 -71.0000 71° East 222 255 2,000 -240 Level KA90
04:15PM 42.6333 -70.9167 75° East 226 260 1,600 -240 Descending KA90
04:16PM 42.6000 -70.8667 132° Southeast 186 214 1,600 -300 Level KA90
04:17PM 42.5667 -70.8500 160° South 149 171 1,000 -600 Descending KA90
04:18PM 42.5714 -70.8981 278° West 92 106 400 -540 Descending Boston Center
04:20PM 42.5833 -70.9000 294° West  Level FlightAware Approximate
04:27PM 42.5841 -70.9161 294° West  Level Estimated